createdAt,value
2017-06-30T00:01:57.084Z,11.80
2017-06-30T00:04:23.322Z,11.80
2017-06-30T00:06:50.249Z,11.80
2017-06-30T00:09:17.161Z,11.70
2017-06-30T00:11:43.637Z,11.70
2017-06-30T00:14:09.918Z,11.70
2017-06-30T00:16:36.091Z,11.70
2017-06-30T00:19:02.283Z,11.70
2017-06-30T00:21:28.456Z,11.70
2017-06-30T00:23:55.416Z,11.70
2017-06-30T00:26:21.580Z,11.70
2017-06-30T00:28:47.775Z,11.70
2017-06-30T00:31:14.544Z,11.70
2017-06-30T00:33:40.702Z,11.70
2017-06-30T00:36:06.877Z,11.60
2017-06-30T00:38:33.084Z,11.60
2017-06-30T00:40:59.251Z,11.60
2017-06-30T00:43:25.485Z,11.60
2017-06-30T00:45:51.660Z,11.60
2017-06-30T00:48:17.831Z,11.60
2017-06-30T00:50:44.044Z,11.60
2017-06-30T00:53:10.296Z,11.60
2017-06-30T00:55:36.455Z,11.60
2017-06-30T00:58:03.370Z,11.40
2017-06-30T01:00:29.568Z,11.40
2017-06-30T01:02:55.753Z,11.40
2017-06-30T01:05:22.667Z,11.40
2017-06-30T01:07:48.859Z,11.40
2017-06-30T01:10:15.171Z,11.40
2017-06-30T01:12:42.116Z,11.30
2017-06-30T01:15:08.284Z,11.20
2017-06-30T01:17:34.456Z,11.30
2017-06-30T01:20:01.417Z,11.20
2017-06-30T01:22:27.579Z,11.20
2017-06-30T01:24:53.743Z,11.20
2017-06-30T01:27:19.972Z,11.20
2017-06-30T01:29:46.127Z,11.20
2017-06-30T01:32:12.315Z,11.30
2017-06-30T01:34:38.536Z,11.30
2017-06-30T01:37:04.712Z,11.30
2017-06-30T01:39:30.915Z,11.30
2017-06-30T01:41:57.927Z,11.20
2017-06-30T01:44:24.135Z,11.20
2017-06-30T01:46:50.343Z,11.20
2017-06-30T01:49:16.700Z,11.20
2017-06-30T01:51:42.966Z,11.20
2017-06-30T01:54:09.167Z,11.20
2017-06-30T01:56:35.459Z,11.30
2017-06-30T01:59:01.623Z,11.30
2017-06-30T02:01:27.788Z,11.30
2017-06-30T02:03:54.720Z,11.40
2017-06-30T02:06:21.690Z,11.40
2017-06-30T02:08:47.903Z,11.30
2017-06-30T02:11:14.817Z,11.40
2017-06-30T02:13:40.997Z,11.40
2017-06-30T02:16:07.224Z,11.40
2017-06-30T02:18:33.396Z,11.40
2017-06-30T02:20:59.599Z,11.30
2017-06-30T02:23:25.784Z,11.40
2017-06-30T02:25:52.687Z,11.50
2017-06-30T02:28:18.963Z,11.50
2017-06-30T02:30:45.908Z,11.50
2017-06-30T02:33:12.822Z,11.50
2017-06-30T02:35:38.988Z,11.50
2017-06-30T02:38:05.215Z,11.40
2017-06-30T02:40:31.463Z,11.50
2017-06-30T02:42:57.715Z,11.50
2017-06-30T02:45:23.924Z,11.50
2017-06-30T02:47:50.123Z,11.50
2017-06-30T02:50:17.020Z,11.50
2017-06-30T02:52:43.236Z,11.50
2017-06-30T02:55:09.401Z,11.50
2017-06-30T02:57:35.648Z,11.50
2017-06-30T03:00:01.864Z,11.50
2017-06-30T03:02:28.799Z,11.60
2017-06-30T03:04:55.719Z,11.50
2017-06-30T03:07:21.891Z,11.50
2017-06-30T03:09:48.840Z,11.40
2017-06-30T03:12:15.011Z,11.40
2017-06-30T03:14:41.194Z,11.40
2017-06-30T03:17:07.406Z,11.40
2017-06-30T03:19:34.328Z,11.40
2017-06-30T03:22:00.500Z,11.40
2017-06-30T03:24:26.695Z,11.40
2017-06-30T03:26:52.855Z,11.40
2017-06-30T03:29:19.015Z,11.40
2017-06-30T03:31:45.211Z,11.30
2017-06-30T03:34:11.377Z,11.40
2017-06-30T03:36:37.539Z,11.30
2017-06-30T03:39:04.483Z,11.40
2017-06-30T03:41:31.419Z,11.30
2017-06-30T03:43:58.339Z,11.30
2017-06-30T03:46:24.539Z,11.30
2017-06-30T03:48:50.718Z,11.40
2017-06-30T03:51:17.628Z,11.40
2017-06-30T03:53:43.843Z,11.40
2017-06-30T03:56:10.006Z,11.40
2017-06-30T03:58:36.185Z,11.40
2017-06-30T04:01:02.400Z,11.40
2017-06-30T04:03:28.564Z,11.40
2017-06-30T04:05:54.724Z,11.40
2017-06-30T04:08:21.672Z,11.40
2017-06-30T04:10:47.840Z,11.40
2017-06-30T04:13:14.002Z,11.50
2017-06-30T04:15:40.203Z,11.50
2017-06-30T04:18:06.380Z,11.60
2017-06-30T04:20:32.540Z,11.50
2017-06-30T04:22:58.767Z,11.60
2017-06-30T04:25:24.997Z,11.50
2017-06-30T04:27:51.155Z,11.60
2017-06-30T04:30:17.363Z,11.70
2017-06-30T04:32:43.536Z,11.70
2017-06-30T04:35:10.448Z,11.70
2017-06-30T04:37:36.648Z,11.70
2017-06-30T04:40:02.820Z,11.70
2017-06-30T04:42:28.984Z,11.70
2017-06-30T04:44:55.223Z,11.70
2017-06-30T04:47:21.397Z,11.80
2017-06-30T04:49:47.568Z,11.90
2017-06-30T04:52:13.819Z,11.90
2017-06-30T04:54:40.012Z,11.90
2017-06-30T04:57:06.252Z,11.90
2017-06-30T04:59:32.431Z,12.00
2017-06-30T05:01:58.611Z,12.20
2017-06-30T05:04:24.815Z,12.40
2017-06-30T05:06:51.724Z,13.10
2017-06-30T05:09:17.903Z,13.10
2017-06-30T05:11:44.100Z,13.30
2017-06-30T05:14:10.268Z,13.40
2017-06-30T05:16:36.496Z,13.60
2017-06-30T05:19:02.700Z,13.80
2017-06-30T05:21:28.908Z,13.80
2017-06-30T05:23:55.126Z,13.80
2017-06-30T05:26:21.312Z,13.90
2017-06-30T05:28:47.528Z,14.20
2017-06-30T05:31:13.690Z,14.10
2017-06-30T05:33:39.864Z,14.10
2017-06-30T05:36:06.095Z,14.30
2017-06-30T05:38:32.267Z,14.20
2017-06-30T05:40:58.426Z,14.50
2017-06-30T05:43:25.362Z,15.00
2017-06-30T05:45:51.541Z,15.00
2017-06-30T05:48:17.787Z,15.20
2017-06-30T05:50:44.005Z,15.40
2017-06-30T05:53:10.192Z,15.50
2017-06-30T05:55:37.127Z,15.60
2017-06-30T05:58:04.075Z,15.80
2017-06-30T06:00:30.989Z,16.10
2017-06-30T06:02:57.180Z,16.00
2017-06-30T06:05:23.383Z,16.20
2017-06-30T06:07:49.567Z,16.40
2017-06-30T06:10:15.777Z,16.60
2017-06-30T06:12:41.968Z,16.80
2017-06-30T06:15:08.191Z,16.90
2017-06-30T06:17:34.353Z,17.00
2017-06-30T06:20:00.530Z,17.00
2017-06-30T06:22:27.476Z,17.10
2017-06-30T06:24:54.432Z,17.30
2017-06-30T06:27:20.644Z,17.30
2017-06-30T06:29:46.843Z,17.40
2017-06-30T06:32:13.032Z,17.70
2017-06-30T06:34:39.233Z,17.80
2017-06-30T06:37:06.190Z,17.70
2017-06-30T06:39:32.363Z,17.70
2017-06-30T06:41:58.539Z,17.90
2017-06-30T06:44:24.773Z,17.90
2017-06-30T06:46:50.943Z,18.20
2017-06-30T06:49:17.119Z,18.50
2017-06-30T06:51:43.348Z,18.80
2017-06-30T06:54:10.307Z,19.20
2017-06-30T06:56:36.475Z,19.10
2017-06-30T06:59:02.685Z,19.10
2017-06-30T07:01:28.877Z,19.50
2017-06-30T07:03:55.823Z,19.80
2017-06-30T07:06:22.777Z,19.30
2017-06-30T07:08:49.013Z,19.30
2017-06-30T07:11:15.234Z,19.30
2017-06-30T07:13:41.428Z,19.30
2017-06-30T07:16:07.663Z,19.80
2017-06-30T07:18:33.892Z,19.90
2017-06-30T07:21:00.063Z,20.40
2017-06-30T07:23:26.234Z,20.90
2017-06-30T07:25:52.435Z,21.50
2017-06-30T07:28:18.629Z,21.20
2017-06-30T07:30:44.879Z,21.60
2017-06-30T07:33:11.152Z,21.70
2017-06-30T07:35:37.329Z,21.10
2017-06-30T07:38:03.551Z,20.80
2017-06-30T07:40:29.743Z,21.50
2017-06-30T07:42:56.658Z,22.10
2017-06-30T07:45:22.931Z,22.10
2017-06-30T07:47:49.164Z,22.30
2017-06-30T07:50:15.340Z,22.80
2017-06-30T07:52:41.536Z,23.40
2017-06-30T07:55:07.727Z,23.80
2017-06-30T07:57:34.807Z,24.10
2017-06-30T08:00:00.968Z,24.10
2017-06-30T08:02:27.144Z,24.60
2017-06-30T08:04:53.360Z,25.10
2017-06-30T08:07:20.271Z,25.60
2017-06-30T08:09:46.461Z,25.60
2017-06-30T08:12:12.688Z,25.80
2017-06-30T08:14:38.884Z,25.90
2017-06-30T08:17:05.800Z,25.60
2017-06-30T08:19:32.148Z,25.60
2017-06-30T08:21:59.116Z,24.10
2017-06-30T08:24:25.327Z,24.00
2017-06-30T08:26:52.267Z,22.60
2017-06-30T08:29:19.188Z,22.00
2017-06-30T08:31:45.364Z,22.00
2017-06-30T08:34:11.588Z,21.60
2017-06-30T08:36:37.758Z,21.60
2017-06-30T08:39:03.961Z,21.80
2017-06-30T08:41:30.195Z,22.60
2017-06-30T08:43:56.375Z,23.90
2017-06-30T08:46:22.551Z,24.70
2017-06-30T08:48:48.768Z,25.20
2017-06-30T08:51:14.943Z,25.70
2017-06-30T08:53:41.113Z,25.80
2017-06-30T08:56:07.403Z,25.80
2017-06-30T08:58:33.664Z,25.10
2017-06-30T09:00:59.828Z,24.20
2017-06-30T09:03:26.055Z,23.60
2017-06-30T09:05:52.234Z,23.90
2017-06-30T09:08:19.180Z,23.10
2017-06-30T09:10:45.564Z,23.00
2017-06-30T09:13:11.731Z,23.30
2017-06-30T09:15:38.656Z,24.40
2017-06-30T09:18:04.849Z,24.40
2017-06-30T09:20:31.044Z,23.50
2017-06-30T09:22:57.245Z,23.90
2017-06-30T09:25:24.191Z,24.30
2017-06-30T09:27:51.108Z,25.10
2017-06-30T09:30:17.327Z,25.10
2017-06-30T09:32:43.532Z,24.90
2017-06-30T09:35:09.703Z,24.80
2017-06-30T09:37:35.916Z,25.30
2017-06-30T09:40:02.109Z,25.90
2017-06-30T09:42:28.311Z,25.90
2017-06-30T09:44:54.505Z,25.30
2017-06-30T09:47:20.720Z,25.00
2017-06-30T09:49:46.930Z,25.40
2017-06-30T09:52:13.120Z,25.40
2017-06-30T09:54:39.421Z,25.40
2017-06-30T09:57:05.679Z,25.00
2017-06-30T09:59:32.664Z,25.40
2017-06-30T10:01:58.864Z,25.40
2017-06-30T10:04:25.150Z,26.00
2017-06-30T10:06:51.355Z,25.80
2017-06-30T10:09:17.544Z,25.10
2017-06-30T10:11:43.783Z,24.50
2017-06-30T10:14:09.973Z,24.80
2017-06-30T10:16:36.888Z,25.10
2017-06-30T10:19:03.102Z,25.10
2017-06-30T10:21:30.069Z,25.60
2017-06-30T10:23:56.249Z,25.60
2017-06-30T10:26:22.498Z,26.20
2017-06-30T10:28:48.701Z,26.00
2017-06-30T10:31:14.884Z,25.50
2017-06-30T10:33:41.124Z,25.10
2017-06-30T10:36:07.303Z,24.70
2017-06-30T10:38:33.488Z,24.70
2017-06-30T10:40:59.703Z,24.80
2017-06-30T10:43:25.891Z,24.80
2017-06-30T10:45:52.093Z,24.60
2017-06-30T10:48:19.164Z,24.30
2017-06-30T10:50:45.369Z,23.90
2017-06-30T10:53:11.588Z,24.40
2017-06-30T10:55:37.805Z,25.20
2017-06-30T10:58:04.760Z,26.70
2017-06-30T11:00:31.072Z,26.60
2017-06-30T11:02:57.291Z,26.60
2017-06-30T11:05:23.481Z,27.20
2017-06-30T11:07:49.720Z,27.30
2017-06-30T11:10:15.936Z,26.90
2017-06-30T11:12:42.120Z,25.60
2017-06-30T11:15:09.056Z,24.10
2017-06-30T11:17:36.159Z,24.00
2017-06-30T11:20:02.409Z,24.00
2017-06-30T11:22:28.605Z,23.80
2017-06-30T11:24:54.818Z,24.20
2017-06-30T11:27:21.024Z,24.80
2017-06-30T11:29:47.232Z,25.10
2017-06-30T11:32:13.462Z,25.10
2017-06-30T11:34:40.388Z,24.30
2017-06-30T11:37:06.600Z,24.20
2017-06-30T11:39:32.766Z,24.50
2017-06-30T11:41:59.691Z,24.20
2017-06-30T11:44:25.904Z,24.20
2017-06-30T11:46:52.086Z,24.30
2017-06-30T11:49:18.265Z,24.30
2017-06-30T11:51:44.479Z,24.50
2017-06-30T11:54:10.682Z,24.80
2017-06-30T11:56:36.857Z,24.30
2017-06-30T11:59:03.306Z,24.20
2017-06-30T12:01:29.496Z,24.30
2017-06-30T12:03:55.689Z,24.20
2017-06-30T12:06:21.929Z,24.10
2017-06-30T12:08:48.415Z,24.20
2017-06-30T12:11:14.629Z,24.00
2017-06-30T12:13:40.864Z,23.90
2017-06-30T12:16:07.173Z,24.00
2017-06-30T12:18:33.427Z,23.80
2017-06-30T12:20:59.603Z,23.80
2017-06-30T12:23:25.793Z,23.70
2017-06-30T12:25:52.053Z,23.10
2017-06-30T12:28:18.548Z,23.20
2017-06-30T12:30:45.517Z,22.60
2017-06-30T12:33:11.761Z,22.60
2017-06-30T12:35:37.944Z,22.30
2017-06-30T12:38:04.176Z,22.40
2017-06-30T12:40:30.362Z,22.60
2017-06-30T12:42:56.543Z,22.70
2017-06-30T12:45:23.524Z,22.70
2017-06-30T12:47:49.720Z,22.70
2017-06-30T12:50:15.895Z,22.70
2017-06-30T12:52:42.106Z,22.60
2017-06-30T12:55:08.352Z,22.50
2017-06-30T12:57:34.540Z,22.50
2017-06-30T13:00:00.763Z,22.60
2017-06-30T13:02:26.940Z,22.50
2017-06-30T13:04:53.163Z,22.70
2017-06-30T13:07:19.356Z,22.70
2017-06-30T13:09:45.540Z,22.80
2017-06-30T13:12:11.764Z,22.70
2017-06-30T13:14:37.944Z,22.50
2017-06-30T13:17:04.145Z,22.40
2017-06-30T13:19:30.349Z,22.30
2017-06-30T13:21:56.543Z,22.30
2017-06-30T13:24:22.737Z,22.30
2017-06-30T13:26:48.992Z,22.30
2017-06-30T13:29:15.164Z,22.40
2017-06-30T13:31:41.380Z,22.30
2017-06-30T13:34:07.611Z,22.40
2017-06-30T13:36:33.791Z,22.50
2017-06-30T13:38:59.982Z,22.60
2017-06-30T13:41:26.946Z,22.00
2017-06-30T13:43:53.123Z,22.00
2017-06-30T13:46:19.296Z,22.10
2017-06-30T13:48:45.505Z,22.30
2017-06-30T13:51:12.424Z,22.70
2017-06-30T13:53:38.652Z,22.70
2017-06-30T13:56:04.832Z,22.70
2017-06-30T13:58:31.019Z,22.80
2017-06-30T14:00:57.239Z,22.90
2017-06-30T14:03:23.433Z,22.90
2017-06-30T14:05:49.608Z,22.90
2017-06-30T14:08:16.561Z,22.80
2017-06-30T14:10:43.475Z,22.90
2017-06-30T14:13:09.680Z,22.90
2017-06-30T14:15:35.850Z,22.80
2017-06-30T14:18:02.064Z,22.80
2017-06-30T14:20:28.286Z,22.60
2017-06-30T14:22:54.478Z,22.80
2017-06-30T14:25:20.677Z,22.80
2017-06-30T14:27:47.637Z,22.50
2017-06-30T14:30:13.844Z,22.40
2017-06-30T14:32:40.776Z,22.60
2017-06-30T14:35:07.804Z,22.60
2017-06-30T14:37:33.988Z,22.60
2017-06-30T14:40:00.155Z,22.70
2017-06-30T14:42:26.380Z,22.70
2017-06-30T14:44:52.588Z,22.70
2017-06-30T14:47:18.763Z,23.00
2017-06-30T14:49:45.729Z,23.10
2017-06-30T14:52:11.901Z,23.10
2017-06-30T14:54:38.076Z,23.20
2017-06-30T14:57:05.041Z,22.90
2017-06-30T14:59:31.211Z,22.90
2017-06-30T15:01:57.396Z,22.90
2017-06-30T15:04:23.591Z,22.90
2017-06-30T15:06:49.778Z,22.60
2017-06-30T15:09:16.020Z,22.70
2017-06-30T15:11:42.187Z,22.60
2017-06-30T15:14:08.359Z,22.40
2017-06-30T15:16:34.560Z,22.40
2017-06-30T15:19:00.788Z,22.30
2017-06-30T15:21:26.956Z,22.30
2017-06-30T15:23:53.167Z,22.40
2017-06-30T15:26:19.383Z,22.60
2017-06-30T15:28:45.569Z,22.50
2017-06-30T15:31:12.490Z,22.60
2017-06-30T15:33:38.732Z,22.60
2017-06-30T15:36:05.651Z,22.70
2017-06-30T15:38:31.829Z,22.70
2017-06-30T15:40:58.044Z,22.70
2017-06-30T15:43:24.257Z,22.70
2017-06-30T15:45:50.419Z,22.50
2017-06-30T15:48:16.600Z,22.40
2017-06-30T15:50:42.937Z,22.30
2017-06-30T15:53:09.137Z,22.10
2017-06-30T15:55:35.327Z,22.10
2017-06-30T15:58:01.527Z,22.00
2017-06-30T16:00:28.453Z,22.00
2017-06-30T16:02:54.678Z,22.00
2017-06-30T16:05:20.867Z,22.00
2017-06-30T16:07:47.028Z,21.80
2017-06-30T16:10:13.232Z,21.40
2017-06-30T16:12:39.419Z,21.00
2017-06-30T16:15:05.628Z,20.80
2017-06-30T16:17:31.869Z,20.60
2017-06-30T16:19:58.785Z,20.40
2017-06-30T16:22:24.988Z,20.40
2017-06-30T16:24:51.171Z,20.30
2017-06-30T16:27:17.331Z,20.20
2017-06-30T16:29:43.568Z,19.90
2017-06-30T16:32:09.753Z,19.90
2017-06-30T16:34:35.953Z,19.90
2017-06-30T16:37:02.196Z,19.90
2017-06-30T16:39:29.118Z,19.50
2017-06-30T16:41:55.287Z,19.50
2017-06-30T16:44:21.522Z,19.40
2017-06-30T16:46:48.432Z,19.40
2017-06-30T16:49:15.372Z,19.30
2017-06-30T16:51:41.580Z,19.30
2017-06-30T16:54:07.774Z,19.30
2017-06-30T16:56:33.949Z,19.40
2017-06-30T16:59:00.180Z,19.50
2017-06-30T17:01:26.375Z,19.50
2017-06-30T17:03:52.601Z,19.60
2017-06-30T17:06:18.851Z,19.60
2017-06-30T17:08:45.035Z,19.60
2017-06-30T17:11:11.215Z,19.60
2017-06-30T17:13:37.415Z,19.70
2017-06-30T17:16:03.591Z,19.40
2017-06-30T17:18:30.541Z,19.40
2017-06-30T17:20:56.719Z,19.40
2017-06-30T17:23:22.888Z,19.50
2017-06-30T17:25:49.833Z,19.60
2017-06-30T17:28:16.742Z,19.50
2017-06-30T17:30:42.927Z,19.50
2017-06-30T17:33:09.135Z,19.40
2017-06-30T17:35:35.353Z,19.30
2017-06-30T17:38:02.289Z,19.20
2017-06-30T17:40:28.520Z,19.20
2017-06-30T17:42:54.732Z,19.20
2017-06-30T17:45:20.944Z,19.00
2017-06-30T17:47:47.175Z,18.90
2017-06-30T17:50:13.631Z,18.90
2017-06-30T17:52:40.546Z,18.90
2017-06-30T17:55:06.786Z,18.90
2017-06-30T17:57:33.027Z,18.90
2017-06-30T17:59:59.232Z,18.90
2017-06-30T18:02:25.440Z,18.90
2017-06-30T18:04:51.712Z,18.90
2017-06-30T18:07:17.932Z,18.90
2017-06-30T18:09:44.128Z,18.80
2017-06-30T18:12:10.296Z,18.60
2017-06-30T18:14:37.258Z,18.50
2017-06-30T18:17:03.443Z,18.50
2017-06-30T18:19:29.641Z,18.50
2017-06-30T18:21:55.860Z,18.50
2017-06-30T18:24:22.044Z,18.40
2017-06-30T18:26:48.238Z,18.30
2017-06-30T18:29:14.478Z,18.30
2017-06-30T18:31:40.660Z,18.30
2017-06-30T18:34:06.838Z,18.10
2017-06-30T18:36:33.062Z,18.10
2017-06-30T18:38:59.248Z,18.10
2017-06-30T18:41:25.454Z,18.00
2017-06-30T18:43:52.420Z,18.00
2017-06-30T18:46:18.616Z,18.00
2017-06-30T18:48:44.816Z,18.10
2017-06-30T18:51:11.059Z,18.00
2017-06-30T18:53:37.248Z,18.00
2017-06-30T18:56:03.432Z,18.00
2017-06-30T18:58:29.652Z,18.10
2017-06-30T19:00:56.593Z,17.90
2017-06-30T19:03:23.560Z,17.80
2017-06-30T19:05:49.816Z,17.80
2017-06-30T19:08:16.002Z,17.70
2017-06-30T19:10:42.176Z,17.70
2017-06-30T19:13:08.401Z,17.60
2017-06-30T19:15:34.581Z,17.50
2017-06-30T19:18:01.508Z,17.30
2017-06-30T19:20:27.792Z,17.30
2017-06-30T19:22:53.969Z,17.20
2017-06-30T19:25:20.163Z,17.10
2017-06-30T19:27:46.416Z,17.10
2017-06-30T19:30:12.656Z,17.10
2017-06-30T19:32:39.584Z,17.00
2017-06-30T19:35:05.866Z,16.90
2017-06-30T19:37:32.050Z,16.90
2017-06-30T19:39:58.226Z,16.80
2017-06-30T19:42:24.425Z,16.80
2017-06-30T19:44:51.351Z,16.70
2017-06-30T19:47:17.561Z,16.70
2017-06-30T19:49:43.785Z,16.60
2017-06-30T19:52:09.960Z,16.60
2017-06-30T19:54:36.149Z,16.60
2017-06-30T19:57:02.368Z,16.50
2017-06-30T19:59:28.579Z,16.50
2017-06-30T20:01:54.747Z,16.60
2017-06-30T20:04:21.660Z,16.40
2017-06-30T20:06:47.892Z,16.40
2017-06-30T20:09:14.077Z,16.40
2017-06-30T20:11:40.245Z,16.50
2017-06-30T20:14:06.454Z,16.40
2017-06-30T20:16:32.624Z,16.30
2017-06-30T20:18:59.556Z,16.20
2017-06-30T20:21:25.784Z,16.20
2017-06-30T20:23:51.969Z,16.10
2017-06-30T20:26:18.140Z,16.00
2017-06-30T20:28:44.372Z,16.00
2017-06-30T20:31:10.559Z,16.00
2017-06-30T20:33:36.735Z,15.90
2017-06-30T20:36:02.984Z,15.80
2017-06-30T20:38:29.151Z,15.80
2017-06-30T20:40:55.342Z,15.60
2017-06-30T20:43:21.547Z,15.60
2017-06-30T20:45:48.462Z,15.40
2017-06-30T20:48:14.656Z,15.40
2017-06-30T20:50:40.884Z,15.40
2017-06-30T20:53:07.657Z,15.30
2017-06-30T20:55:33.836Z,15.30
2017-06-30T20:58:00.057Z,15.30
2017-06-30T21:00:26.238Z,15.30
2017-06-30T21:02:52.435Z,15.20
2017-06-30T21:05:18.672Z,15.10
2017-06-30T21:07:44.848Z,15.10
2017-06-30T21:10:11.755Z,15.20
2017-06-30T21:12:37.944Z,15.10
2017-06-30T21:15:04.107Z,15.10
2017-06-30T21:17:30.332Z,15.10
2017-06-30T21:19:56.549Z,15.00
2017-06-30T21:22:22.728Z,15.00
2017-06-30T21:24:48.917Z,15.00
2017-06-30T21:27:15.128Z,15.00
2017-06-30T21:29:41.308Z,14.90
2017-06-30T21:32:07.886Z,14.80
2017-06-30T21:34:34.065Z,14.80
2017-06-30T21:37:00.238Z,14.80
2017-06-30T21:39:26.440Z,14.80
2017-06-30T21:41:52.631Z,14.80
2017-06-30T21:44:18.842Z,14.70
2017-06-30T21:46:45.040Z,14.60
2017-06-30T21:49:11.291Z,14.60
2017-06-30T21:51:37.501Z,14.60
2017-06-30T21:54:03.765Z,14.60
2017-06-30T21:56:29.935Z,14.70
2017-06-30T21:58:56.121Z,14.70
2017-06-30T22:01:22.287Z,14.70
2017-06-30T22:03:48.496Z,14.70
2017-06-30T22:06:15.428Z,14.60
2017-06-30T22:08:41.617Z,14.60
2017-06-30T22:11:07.835Z,14.60
2017-06-30T22:13:34.020Z,14.60
2017-06-30T22:16:00.965Z,14.60
2017-06-30T22:18:27.202Z,14.60
2017-06-30T22:20:53.417Z,14.50
2017-06-30T22:23:19.589Z,14.60
2017-06-30T22:25:45.783Z,14.60
2017-06-30T22:28:12.687Z,14.50
2017-06-30T22:30:38.890Z,14.50
2017-06-30T22:33:05.050Z,14.50
2017-06-30T22:35:31.246Z,14.50
2017-06-30T22:37:57.524Z,14.50
2017-06-30T22:40:24.450Z,14.40
2017-06-30T22:42:50.622Z,14.40
2017-06-30T22:45:16.811Z,14.40
2017-06-30T22:47:42.992Z,14.30
2017-06-30T22:50:09.163Z,14.30
2017-06-30T22:52:35.411Z,14.20
2017-06-30T22:55:02.368Z,14.10
2017-06-30T22:57:28.545Z,14.10
2017-06-30T22:59:54.741Z,14.10
2017-06-30T23:02:20.977Z,14.10
2017-06-30T23:04:47.143Z,14.10
2017-06-30T23:07:13.327Z,14.10
2017-06-30T23:09:39.520Z,14.10
2017-06-30T23:12:06.425Z,13.90
2017-06-30T23:14:32.630Z,13.90
2017-06-30T23:16:58.807Z,13.90
2017-06-30T23:19:24.979Z,13.90
2017-06-30T23:21:51.191Z,13.80
2017-06-30T23:24:17.436Z,13.80
2017-06-30T23:26:43.624Z,13.70
2017-06-30T23:29:10.647Z,13.70
2017-06-30T23:31:36.917Z,13.70
2017-06-30T23:34:03.119Z,13.70
2017-06-30T23:36:29.388Z,13.70
2017-06-30T23:38:55.608Z,13.70
2017-06-30T23:41:21.795Z,13.60
2017-06-30T23:43:48.040Z,13.70
2017-06-30T23:46:14.955Z,13.70
2017-06-30T23:48:41.200Z,13.70
2017-06-30T23:51:07.379Z,13.70
2017-06-30T23:53:33.571Z,13.70
2017-06-30T23:56:00.527Z,13.70
2017-06-30T23:58:26.777Z,13.70
